Benson, Illinois
Current Conditions -  °F | °C
As of 8:55 AM on Wednesday 26 Nov 2014 (Local Time) from KC75 Reporting Station
Clear Clear  
Wind Chill: 14°   Ceiling: Unl
Heat Index: 25°   Visibility: 7mi
Dew Point: 20°   Wind: 12mph
Humidity: 84%   Direction: 130°SE
Pressure: 30.11"   Gusts: NA
Location:  40.85°N, 89.12°W
Report Text: KC75 261455Z AUTO 13010KT 7SM CLR M04/M06 A3011 RMK AO2 T10411065
Loading
Personal Weather Stations






























Interactive Weather Map New forecast layout! Learn more

10-Day Weather Forecast

Advertisements
Track Severe Weather on mobile